sensor_id;sensor_type;location;lat;lon;timestamp;pressure;altitude;pressure_sealevel;temperature;humidity
64713;BME280;51140;45.340;5.980;2023-05-25T00:01:37;98033.44;;;15.82;67.63
64713;BME280;51140;45.340;5.980;2023-05-25T00:04:02;98037.13;;;15.86;67.47
64713;BME280;51140;45.340;5.980;2023-05-25T00:06:29;98034.63;;;15.76;69.46
64713;BME280;51140;45.340;5.980;2023-05-25T00:08:55;98033.56;;;15.77;68.77
64713;BME280;51140;45.340;5.980;2023-05-25T00:11:22;98041.38;;;15.19;65.55
64713;BME280;51140;45.340;5.980;2023-05-25T00:13:49;98030.97;;;15.44;67.72
64713;BME280;51140;45.340;5.980;2023-05-25T00:16:14;98027.44;;;15.63;69.40
64713;BME280;51140;45.340;5.980;2023-05-25T00:18:40;98026.63;;;15.76;68.76
64713;BME280;51140;45.340;5.980;2023-05-25T00:21:05;98018.25;;;15.55;67.10
64713;BME280;51140;45.340;5.980;2023-05-25T00:23:32;98019.91;;;15.37;69.59
64713;BME280;51140;45.340;5.980;2023-05-25T00:25:57;98022.66;;;15.46;68.99
64713;BME280;51140;45.340;5.980;2023-05-25T00:28:23;98026.66;;;15.49;68.25
64713;BME280;51140;45.340;5.980;2023-05-25T00:30:48;98027.91;;;15.10;68.70
64713;BME280;51140;45.340;5.980;2023-05-25T00:33:14;98026.22;;;15.14;71.27
64713;BME280;51140;45.340;5.980;2023-05-25T00:35:41;98022.91;;;15.50;68.48
64713;BME280;51140;45.340;5.980;2023-05-25T00:38:16;98025.75;;;15.26;68.08
64713;BME280;51140;45.340;5.980;2023-05-25T00:40:42;98020.19;;;15.09;69.58
64713;BME280;51140;45.340;5.980;2023-05-25T00:43:09;98030.06;;;15.08;69.85
64713;BME280;51140;45.340;5.980;2023-05-25T00:45:35;98025.91;;;15.02;68.74
64713;BME280;51140;45.340;5.980;2023-05-25T00:48:02;98026.72;;;15.16;69.48
64713;BME280;51140;45.340;5.980;2023-05-25T00:50:41;98019.06;;;15.10;68.95
64713;BME280;51140;45.340;5.980;2023-05-25T00:53:09;98019.28;;;15.13;71.41
64713;BME280;51140;45.340;5.980;2023-05-25T00:55:39;98015.69;;;15.04;67.29
64713;BME280;51140;45.340;5.980;2023-05-25T00:58:06;98015.75;;;15.18;67.69
64713;BME280;51140;45.340;5.980;2023-05-25T01:00:33;98016.59;;;15.13;69.75
64713;BME280;51140;45.340;5.980;2023-05-25T01:03:05;98012.47;;;15.21;69.31
64713;BME280;51140;45.340;5.980;2023-05-25T01:05:37;98008.19;;;15.06;68.37
64713;BME280;51140;45.340;5.980;2023-05-25T01:08:03;98016.06;;;14.84;69.68
64713;BME280;51140;45.340;5.980;2023-05-25T01:10:32;98018.16;;;14.87;68.00
64713;BME280;51140;45.340;5.980;2023-05-25T01:12:58;98016.69;;;14.81;70.95
64713;BME280;51140;45.340;5.980;2023-05-25T01:15:25;98010.91;;;14.74;68.95
64713;BME280;51140;45.340;5.980;2023-05-25T01:17:51;98025.69;;;14.85;68.51
64713;BME280;51140;45.340;5.980;2023-05-25T01:20:27;98029.59;;;15.06;66.10
64713;BME280;51140;45.340;5.980;2023-05-25T01:22:57;98027.91;;;15.10;66.17
64713;BME280;51140;45.340;5.980;2023-05-25T01:25:35;98028.91;;;15.14;65.83
64713;BME280;51140;45.340;5.980;2023-05-25T01:28:08;98027.63;;;15.12;65.56
64713;BME280;51140;45.340;5.980;2023-05-25T01:30:36;98023.44;;;15.06;67.69
64713;BME280;51140;45.340;5.980;2023-05-25T01:33:04;98033.47;;;14.81;66.65
64713;BME280;51140;45.340;5.980;2023-05-25T01:35:31;98041.56;;;15.09;68.76
64713;BME280;51140;45.340;5.980;2023-05-25T01:37:58;98042.03;;;14.97;66.95
64713;BME280;51140;45.340;5.980;2023-05-25T01:40:23;98041.13;;;14.88;67.98
64713;BME280;51140;45.340;5.980;2023-05-25T01:42:48;98040.84;;;14.89;69.34
64713;BME280;51140;45.340;5.980;2023-05-25T01:45:15;98040.56;;;15.05;68.92
64713;BME280;51140;45.340;5.980;2023-05-25T01:50:12;98038.25;;;14.84;65.88
64713;BME280;51140;45.340;5.980;2023-05-25T01:52:50;98043.44;;;14.95;66.58
64713;BME280;51140;45.340;5.980;2023-05-25T01:55:17;98049.16;;;15.02;65.94
64713;BME280;51140;45.340;5.980;2023-05-25T01:57:49;98048.19;;;14.98;67.35
64713;BME280;51140;45.340;5.980;2023-05-25T02:00:15;98043.94;;;14.64;67.30
64713;BME280;51140;45.340;5.980;2023-05-25T02:02:43;98050.38;;;14.63;68.30
64713;BME280;51140;45.340;5.980;2023-05-25T02:05:09;98044.00;;;14.92;66.50
64713;BME280;51140;45.340;5.980;2023-05-25T02:07:35;98047.28;;;14.56;69.77
64713;BME280;51140;45.340;5.980;2023-05-25T02:10:01;98040.53;;;14.77;69.40
64713;BME280;51140;45.340;5.980;2023-05-25T02:12:27;98042.06;;;14.65;70.11
64713;BME280;51140;45.340;5.980;2023-05-25T02:14:52;98044.25;;;14.76;65.18
64713;BME280;51140;45.340;5.980;2023-05-25T02:17:17;98043.09;;;14.82;64.51
64713;BME280;51140;45.340;5.980;2023-05-25T02:19:44;98030.19;;;14.71;62.92
64713;BME280;51140;45.340;5.980;2023-05-25T02:22:10;98040.06;;;14.89;64.76
64713;BME280;51140;45.340;5.980;2023-05-25T02:24:36;98041.34;;;15.05;64.76
64713;BME280;51140;45.340;5.980;2023-05-25T02:27:03;98041.56;;;14.95;65.29
64713;BME280;51140;45.340;5.980;2023-05-25T02:29:28;98040.97;;;14.98;67.04
64713;BME280;51140;45.340;5.980;2023-05-25T02:31:54;98040.88;;;15.17;67.58
64713;BME280;51140;45.340;5.980;2023-05-25T02:34:19;98040.22;;;14.79;66.47
64713;BME280;51140;45.340;5.980;2023-05-25T02:36:44;98039.06;;;14.99;65.82
64713;BME280;51140;45.340;5.980;2023-05-25T02:39:10;98039.47;;;14.92;67.96
64713;BME280;51140;45.340;5.980;2023-05-25T02:41:36;98035.84;;;14.69;66.02
64713;BME280;51140;45.340;5.980;2023-05-25T02:44:02;98040.50;;;14.64;67.21
64713;BME280;51140;45.340;5.980;2023-05-25T02:46:27;98039.16;;;14.61;66.61
64713;BME280;51140;45.340;5.980;2023-05-25T02:48:52;98049.34;;;14.78;68.35
64713;BME280;51140;45.340;5.980;2023-05-25T02:51:18;98040.41;;;14.69;67.14
64713;BME280;51140;45.340;5.980;2023-05-25T02:53:43;98034.38;;;14.77;66.67
64713;BME280;51140;45.340;5.980;2023-05-25T02:56:09;98041.31;;;14.46;67.46
64713;BME280;51140;45.340;5.980;2023-05-25T02:58:35;98038.34;;;14.10;70.82
64713;BME280;51140;45.340;5.980;2023-05-25T03:01:01;98032.00;;;14.43;67.91
64713;BME280;51140;45.340;5.980;2023-05-25T03:03:27;98037.03;;;14.26;68.56
64713;BME280;51140;45.340;5.980;2023-05-25T03:05:54;98031.03;;;14.53;68.33
64713;BME280;51140;45.340;5.980;2023-05-25T03:08:21;98039.44;;;14.46;67.57
64713;BME280;51140;45.340;5.980;2023-05-25T03:10:46;98035.38;;;14.11;68.81
64713;BME280;51140;45.340;5.980;2023-05-25T03:13:12;98033.44;;;14.17;70.41
64713;BME280;51140;45.340;5.980;2023-05-25T03:15:37;98037.69;;;13.99;69.35
64713;BME280;51140;45.340;5.980;2023-05-25T03:18:04;98037.03;;;13.89;70.78
64713;BME280;51140;45.340;5.980;2023-05-25T03:20:30;98028.13;;;13.98;69.62
64713;BME280;51140;45.340;5.980;2023-05-25T03:22:57;98031.78;;;14.02;68.38
64713;BME280;51140;45.340;5.980;2023-05-25T03:25:22;98033.34;;;14.22;69.09
64713;BME280;51140;45.340;5.980;2023-05-25T03:27:51;98036.72;;;14.32;67.84
64713;BME280;51140;45.340;5.980;2023-05-25T03:30:17;98034.94;;;14.42;68.55
64713;BME280;51140;45.340;5.980;2023-05-25T03:32:42;98039.72;;;14.45;69.81
64713;BME280;51140;45.340;5.980;2023-05-25T03:35:08;98037.56;;;14.47;66.66
64713;BME280;51140;45.340;5.980;2023-05-25T03:37:33;98030.63;;;14.08;69.90
64713;BME280;51140;45.340;5.980;2023-05-25T03:39:58;98035.75;;;14.05;70.11
64713;BME280;51140;45.340;5.980;2023-05-25T03:42:24;98032.81;;;14.06;69.34
64713;BME280;51140;45.340;5.980;2023-05-25T03:44:49;98029.75;;;14.31;70.14
64713;BME280;51140;45.340;5.980;2023-05-25T03:47:15;98033.50;;;14.30;70.87
64713;BME280;51140;45.340;5.980;2023-05-25T03:49:40;98035.63;;;14.33;69.48
64713;BME280;51140;45.340;5.980;2023-05-25T03:52:06;98037.13;;;14.40;67.50
64713;BME280;51140;45.340;5.980;2023-05-25T03:54:31;98037.34;;;14.43;68.41
64713;BME280;51140;45.340;5.980;2023-05-25T03:56:57;98037.88;;;13.84;71.63
64713;BME280;51140;45.340;5.980;2023-05-25T03:59:26;98035.59;;;14.15;69.76
64713;BME280;51140;45.340;5.980;2023-05-25T04:01:51;98029.59;;;14.04;68.71
64713;BME280;51140;45.340;5.980;2023-05-25T04:04:17;98033.78;;;14.48;68.98
64713;BME280;51140;45.340;5.980;2023-05-25T04:06:42;98029.47;;;13.96;71.13
64713;BME280;51140;45.340;5.980;2023-05-25T04:09:10;98031.91;;;14.11;69.80
64713;BME280;51140;45.340;5.980;2023-05-25T04:11:36;98042.22;;;13.80;71.48
64713;BME280;51140;45.340;5.980;2023-05-25T04:14:02;98045.00;;;13.70;72.29
64713;BME280;51140;45.340;5.980;2023-05-25T04:16:28;98044.91;;;14.17;73.22
64713;BME280;51140;45.340;5.980;2023-05-25T04:18:53;98045.63;;;14.04;71.89
64713;BME280;51140;45.340;5.980;2023-05-25T04:21:20;98051.09;;;14.13;73.01
64713;BME280;51140;45.340;5.980;2023-05-25T04:23:45;98046.88;;;14.12;72.03
64713;BME280;51140;45.340;5.980;2023-05-25T04:26:10;98048.38;;;13.99;73.37
64713;BME280;51140;45.340;5.980;2023-05-25T04:28:36;98049.28;;;14.27;73.17
64713;BME280;51140;45.340;5.980;2023-05-25T04:31:02;98050.81;;;14.14;74.91
64713;BME280;51140;45.340;5.980;2023-05-25T04:33:28;98051.41;;;14.11;73.95
64713;BME280;51140;45.340;5.980;2023-05-25T04:35:56;98057.88;;;14.05;72.92
64713;BME280;51140;45.340;5.980;2023-05-25T04:38:25;98058.91;;;14.09;70.91
64713;BME280;51140;45.340;5.980;2023-05-25T04:40:51;98053.75;;;13.75;70.76
64713;BME280;51140;45.340;5.980;2023-05-25T04:43:18;98041.88;;;14.05;70.27
64713;BME280;51140;45.340;5.980;2023-05-25T04:45:44;98047.34;;;14.14;69.50
64713;BME280;51140;45.340;5.980;2023-05-25T04:48:11;98053.44;;;14.01;70.34
64713;BME280;51140;45.340;5.980;2023-05-25T04:50:38;98057.16;;;13.81;72.26
64713;BME280;51140;45.340;5.980;2023-05-25T04:53:04;98061.88;;;13.65;70.34
64713;BME280;51140;45.340;5.980;2023-05-25T04:55:30;98058.88;;;13.72;70.39
64713;BME280;51140;45.340;5.980;2023-05-25T04:57:55;98052.97;;;13.94;70.23
64713;BME280;51140;45.340;5.980;2023-05-25T05:00:21;98048.00;;;14.06;72.53
64713;BME280;51140;45.340;5.980;2023-05-25T05:02:46;98060.13;;;14.36;69.56
64713;BME280;51140;45.340;5.980;2023-05-25T05:05:12;98063.44;;;14.27;69.21
64713;BME280;51140;45.340;5.980;2023-05-25T05:07:37;98071.63;;;14.36;70.08
64713;BME280;51140;45.340;5.980;2023-05-25T05:10:03;98070.22;;;13.83;71.85
64713;BME280;51140;45.340;5.980;2023-05-25T05:12:29;98072.19;;;14.14;69.67
64713;BME280;51140;45.340;5.980;2023-05-25T05:14:54;98077.56;;;13.91;72.30
64713;BME280;51140;45.340;5.980;2023-05-25T05:17:20;98082.09;;;13.90;71.63
64713;BME280;51140;45.340;5.980;2023-05-25T05:19:47;98088.81;;;13.88;71.56
64713;BME280;51140;45.340;5.980;2023-05-25T05:22:12;98089.13;;;14.05;71.24
64713;BME280;51140;45.340;5.980;2023-05-25T05:24:40;98089.16;;;14.23;71.52
64713;BME280;51140;45.340;5.980;2023-05-25T05:27:05;98093.22;;;13.97;72.78
64713;BME280;51140;45.340;5.980;2023-05-25T05:29:31;98084.53;;;13.68;72.41
64713;BME280;51140;45.340;5.980;2023-05-25T05:31:58;98097.19;;;14.00;72.99
64713;BME280;51140;45.340;5.980;2023-05-25T05:34:24;98092.28;;;13.88;72.99
64713;BME280;51140;45.340;5.980;2023-05-25T05:36:50;98100.59;;;13.87;73.54
64713;BME280;51140;45.340;5.980;2023-05-25T05:39:15;98105.59;;;14.12;71.65
64713;BME280;51140;45.340;5.980;2023-05-25T05:41:41;98102.13;;;14.30;70.92
64713;BME280;51140;45.340;5.980;2023-05-25T05:44:10;98105.69;;;14.44;72.71
64713;BME280;51140;45.340;5.980;2023-05-25T05:46:36;98106.16;;;14.65;73.06
64713;BME280;51140;45.340;5.980;2023-05-25T05:49:01;98114.94;;;14.52;72.25
64713;BME280;51140;45.340;5.980;2023-05-25T05:51:27;98118.13;;;14.30;71.30
64713;BME280;51140;45.340;5.980;2023-05-25T05:53:53;98119.25;;;14.29;71.57
64713;BME280;51140;45.340;5.980;2023-05-25T05:56:18;98113.66;;;14.07;70.56
64713;BME280;51140;45.340;5.980;2023-05-25T05:58:44;98125.69;;;14.47;69.77
64713;BME280;51140;45.340;5.980;2023-05-25T06:01:09;98116.72;;;14.56;72.77
64713;BME280;51140;45.340;5.980;2023-05-25T06:03:35;98121.03;;;14.71;71.40
64713;BME280;51140;45.340;5.980;2023-05-25T06:06:02;98125.94;;;14.82;68.81
64713;BME280;51140;45.340;5.980;2023-05-25T06:08:28;98128.50;;;14.37;68.07
64713;BME280;51140;45.340;5.980;2023-05-25T06:10:53;98136.31;;;14.52;69.28
64713;BME280;51140;45.340;5.980;2023-05-25T06:13:20;98141.88;;;14.55;66.35
64713;BME280;51140;45.340;5.980;2023-05-25T06:15:45;98137.88;;;14.53;67.31
64713;BME280;51140;45.340;5.980;2023-05-25T06:18:10;98145.09;;;14.33;67.14
64713;BME280;51140;45.340;5.980;2023-05-25T06:20:36;98140.41;;;14.44;67.99
64713;BME280;51140;45.340;5.980;2023-05-25T06:23:01;98143.44;;;14.56;66.98
64713;BME280;51140;45.340;5.980;2023-05-25T06:25:27;98140.69;;;14.43;66.48
64713;BME280;51140;45.340;5.980;2023-05-25T06:27:52;98141.13;;;14.50;68.31
64713;BME280;51140;45.340;5.980;2023-05-25T06:30:17;98142.91;;;14.73;71.13
64713;BME280;51140;45.340;5.980;2023-05-25T06:32:43;98143.56;;;14.83;70.12
64713;BME280;51140;45.340;5.980;2023-05-25T06:35:08;98138.41;;;14.87;70.24
64713;BME280;51140;45.340;5.980;2023-05-25T06:37:36;98145.66;;;14.68;73.10
64713;BME280;51140;45.340;5.980;2023-05-25T06:40:05;98146.97;;;14.70;71.50
64713;BME280;51140;45.340;5.980;2023-05-25T06:42:33;98142.41;;;14.71;70.82
64713;BME280;51140;45.340;5.980;2023-05-25T06:44:58;98153.84;;;14.58;70.34
64713;BME280;51140;45.340;5.980;2023-05-25T06:47:24;98151.22;;;14.34;71.80
64713;BME280;51140;45.340;5.980;2023-05-25T06:49:50;98157.22;;;14.45;71.71
64713;BME280;51140;45.340;5.980;2023-05-25T06:52:15;98165.66;;;14.33;71.37
64713;BME280;51140;45.340;5.980;2023-05-25T06:54:40;98162.63;;;14.77;72.65
64713;BME280;51140;45.340;5.980;2023-05-25T06:57:06;98172.81;;;14.75;70.10
64713;BME280;51140;45.340;5.980;2023-05-25T06:59:32;98174.91;;;14.59;73.38
64713;BME280;51140;45.340;5.980;2023-05-25T07:01:58;98177.88;;;14.76;73.69
64713;BME280;51140;45.340;5.980;2023-05-25T07:04:23;98188.78;;;14.80;74.26
64713;BME280;51140;45.340;5.980;2023-05-25T07:06:49;98184.38;;;14.52;72.63
64713;BME280;51140;45.340;5.980;2023-05-25T07:09:16;98192.97;;;14.49;71.91
64713;BME280;51140;45.340;5.980;2023-05-25T07:11:41;98201.06;;;14.62;72.81
64713;BME280;51140;45.340;5.980;2023-05-25T07:14:07;98203.78;;;14.76;74.14
64713;BME280;51140;45.340;5.980;2023-05-25T07:16:32;98198.97;;;14.78;73.87
64713;BME280;51140;45.340;5.980;2023-05-25T07:18:58;98196.72;;;15.04;72.15
64713;BME280;51140;45.340;5.980;2023-05-25T07:21:23;98211.28;;;14.37;72.42
64713;BME280;51140;45.340;5.980;2023-05-25T07:23:49;98207.63;;;14.70;75.29
64713;BME280;51140;45.340;5.980;2023-05-25T07:26:14;98207.63;;;14.51;73.51
64713;BME280;51140;45.340;5.980;2023-05-25T07:28:40;98217.47;;;14.08;73.90
64713;BME280;51140;45.340;5.980;2023-05-25T07:31:08;98211.66;;;14.49;74.32
64713;BME280;51140;45.340;5.980;2023-05-25T07:33:34;98212.66;;;14.53;71.72
64713;BME280;51140;45.340;5.980;2023-05-25T07:35:59;98220.34;;;14.78;72.71
64713;BME280;51140;45.340;5.980;2023-05-25T07:38:25;98225.31;;;15.03;72.72
64713;BME280;51140;45.340;5.980;2023-05-25T07:40:50;98223.63;;;15.07;70.77
64713;BME280;51140;45.340;5.980;2023-05-25T07:43:16;98232.75;;;14.69;73.32
64713;BME280;51140;45.340;5.980;2023-05-25T07:45:42;98229.56;;;14.67;73.46
64713;BME280;51140;45.340;5.980;2023-05-25T07:48:07;98239.09;;;15.10;69.89
64713;BME280;51140;45.340;5.980;2023-05-25T07:50:33;98235.06;;;14.94;70.34
64713;BME280;51140;45.340;5.980;2023-05-25T07:52:59;98233.97;;;15.14;72.82
64713;BME280;51140;45.340;5.980;2023-05-25T07:55:25;98236.41;;;15.29;68.18
64713;BME280;51140;45.340;5.980;2023-05-25T07:57:52;98238.09;;;15.06;68.84
64713;BME280;51140;45.340;5.980;2023-05-25T08:00:17;98238.75;;;15.17;69.94
64713;BME280;51140;45.340;5.980;2023-05-25T08:02:43;98235.88;;;15.27;69.45
64713;BME280;51140;45.340;5.980;2023-05-25T08:05:09;98234.31;;;15.90;69.68
64713;BME280;51140;45.340;5.980;2023-05-25T08:07:34;98241.75;;;16.62;66.74
64713;BME280;51140;45.340;5.980;2023-05-25T08:10:01;98241.72;;;16.89;63.93
64713;BME280;51140;45.340;5.980;2023-05-25T08:12:26;98242.84;;;16.33;64.12
64713;BME280;51140;45.340;5.980;2023-05-25T08:14:53;98252.91;;;16.55;64.45
64713;BME280;51140;45.340;5.980;2023-05-25T08:17:19;98249.34;;;17.84;64.32
64713;BME280;51140;45.340;5.980;2023-05-25T08:19:45;98247.50;;;19.15;59.71
64713;BME280;51140;45.340;5.980;2023-05-25T08:22:10;98255.72;;;17.97;60.88
64713;BME280;51140;45.340;5.980;2023-05-25T08:24:35;98255.41;;;16.87;60.03
64713;BME280;51140;45.340;5.980;2023-05-25T08:27:01;98260.03;;;16.59;63.86
64713;BME280;51140;45.340;5.980;2023-05-25T08:29:26;98262.59;;;16.24;67.89
64713;BME280;51140;45.340;5.980;2023-05-25T08:31:52;98273.00;;;15.98;63.11
64713;BME280;51140;45.340;5.980;2023-05-25T08:34:17;98272.09;;;15.89;63.36
64713;BME280;51140;45.340;5.980;2023-05-25T08:36:43;98276.97;;;15.55;67.09
64713;BME280;51140;45.340;5.980;2023-05-25T08:39:09;98279.41;;;15.83;68.08
64713;BME280;51140;45.340;5.980;2023-05-25T08:41:36;98281.63;;;15.95;70.02
64713;BME280;51140;45.340;5.980;2023-05-25T08:44:04;98289.22;;;15.88;67.98
64713;BME280;51140;45.340;5.980;2023-05-25T08:46:32;98280.25;;;16.11;67.84
64713;BME280;51140;45.340;5.980;2023-05-25T08:49:12;98282.22;;;16.33;65.81
64713;BME280;51140;45.340;5.980;2023-05-25T08:51:42;98285.13;;;16.23;66.72
64713;BME280;51140;45.340;5.980;2023-05-25T08:54:09;98294.53;;;16.20;66.74
64713;BME280;51140;45.340;5.980;2023-05-25T08:56:49;98294.63;;;16.15;64.21
64713;BME280;51140;45.340;5.980;2023-05-25T08:59:29;98296.56;;;15.96;66.46
64713;BME280;51140;45.340;5.980;2023-05-25T09:04:42;98292.56;;;16.67;64.98
64713;BME280;51140;45.340;5.980;2023-05-25T09:07:07;98298.69;;;16.94;64.52
64713;BME280;51140;45.340;5.980;2023-05-25T09:09:33;98306.03;;;17.02;63.00
64713;BME280;51140;45.340;5.980;2023-05-25T09:12:02;98307.06;;;16.66;66.54
64713;BME280;51140;45.340;5.980;2023-05-25T09:14:29;98313.88;;;16.99;67.36
64713;BME280;51140;45.340;5.980;2023-05-25T09:16:55;98317.75;;;16.93;64.70
64713;BME280;51140;45.340;5.980;2023-05-25T09:19:22;98310.13;;;17.22;64.77
64713;BME280;51140;45.340;5.980;2023-05-25T09:21:47;98325.25;;;17.18;61.83
64713;BME280;51140;45.340;5.980;2023-05-25T09:24:13;98325.50;;;16.94;65.62
64713;BME280;51140;45.340;5.980;2023-05-25T09:26:39;98324.53;;;16.77;62.82
64713;BME280;51140;45.340;5.980;2023-05-25T09:29:05;98335.44;;;16.94;62.80
64713;BME280;51140;45.340;5.980;2023-05-25T09:31:31;98331.06;;;16.84;61.73
64713;BME280;51140;45.340;5.980;2023-05-25T09:33:56;98343.88;;;16.46;60.60
64713;BME280;51140;45.340;5.980;2023-05-25T09:36:24;98343.44;;;16.12;60.56
64713;BME280;51140;45.340;5.980;2023-05-25T09:38:52;98356.06;;;16.52;64.94
64713;BME280;51140;45.340;5.980;2023-05-25T09:41:18;98360.47;;;16.76;64.34
64713;BME280;51140;45.340;5.980;2023-05-25T09:43:43;98355.53;;;17.18;62.51
64713;BME280;51140;45.340;5.980;2023-05-25T09:46:09;98358.75;;;17.21;64.87
64713;BME280;51140;45.340;5.980;2023-05-25T09:48:35;98358.94;;;17.10;59.79
64713;BME280;51140;45.340;5.980;2023-05-25T09:51:02;98367.16;;;17.28;64.34
64713;BME280;51140;45.340;5.980;2023-05-25T09:53:28;98371.00;;;17.35;59.17
64713;BME280;51140;45.340;5.980;2023-05-25T09:55:56;98368.03;;;17.72;60.69
64713;BME280;51140;45.340;5.980;2023-05-25T09:58:22;98364.88;;;17.70;60.25
64713;BME280;51140;45.340;5.980;2023-05-25T10:00:53;98374.00;;;18.14;60.96
64713;BME280;51140;45.340;5.980;2023-05-25T10:03:19;98364.44;;;19.00;57.01
64713;BME280;51140;45.340;5.980;2023-05-25T10:05:47;98372.19;;;19.02;57.18
64713;BME280;51140;45.340;5.980;2023-05-25T10:08:12;98377.13;;;19.08;54.02
64713;BME280;51140;45.340;5.980;2023-05-25T10:10:39;98380.53;;;19.48;55.78
64713;BME280;51140;45.340;5.980;2023-05-25T10:13:07;98389.41;;;19.74;59.10
64713;BME280;51140;45.340;5.980;2023-05-25T10:15:37;98397.50;;;19.66;53.00
64713;BME280;51140;45.340;5.980;2023-05-25T10:18:05;98388.41;;;20.13;56.43
64713;BME280;51140;45.340;5.980;2023-05-25T10:20:31;98391.09;;;19.27;54.86
64713;BME280;51140;45.340;5.980;2023-05-25T10:23:04;98402.38;;;19.72;56.51
64713;BME280;51140;45.340;5.980;2023-05-25T10:25:49;98400.28;;;20.38;56.00
64713;BME280;51140;45.340;5.980;2023-05-25T10:28:21;98392.53;;;20.28;54.31
64713;BME280;51140;45.340;5.980;2023-05-25T10:30:51;98396.22;;;20.61;51.86
64713;BME280;51140;45.340;5.980;2023-05-25T10:33:18;98394.53;;;20.57;54.15
64713;BME280;51140;45.340;5.980;2023-05-25T10:35:45;98388.25;;;20.10;51.22
64713;BME280;51140;45.340;5.980;2023-05-25T10:38:11;98392.69;;;20.31;55.89
64713;BME280;51140;45.340;5.980;2023-05-25T10:40:37;98387.81;;;19.56;53.83
64713;BME280;51140;45.340;5.980;2023-05-25T10:43:04;98388.28;;;19.58;52.87
64713;BME280;51140;45.340;5.980;2023-05-25T10:45:30;98393.63;;;20.18;51.00
64713;BME280;51140;45.340;5.980;2023-05-25T10:47:56;98393.78;;;20.22;51.98
64713;BME280;51140;45.340;5.980;2023-05-25T10:50:26;98397.47;;;20.72;54.27
64713;BME280;51140;45.340;5.980;2023-05-25T10:53:12;98391.84;;;20.48;53.78
64713;BME280;51140;45.340;5.980;2023-05-25T10:56:01;98396.69;;;19.99;51.73
64713;BME280;51140;45.340;5.980;2023-05-25T10:58:28;98401.56;;;20.23;53.65
64713;BME280;51140;45.340;5.980;2023-05-25T11:01:04;98390.69;;;19.60;51.63
64713;BME280;51140;45.340;5.980;2023-05-25T11:06:12;98382.72;;;20.32;54.61
64713;BME280;51140;45.340;5.980;2023-05-25T11:08:58;98387.31;;;20.69;54.71
64713;BME280;51140;45.340;5.980;2023-05-25T11:14:20;98393.16;;;20.80;52.59
64713;BME280;51140;45.340;5.980;2023-05-25T11:19:46;98394.06;;;20.84;51.15
64713;BME280;51140;45.340;5.980;2023-05-25T11:24:56;98398.91;;;21.07;49.52
64713;BME280;51140;45.340;5.980;2023-05-25T11:27:24;98395.84;;;20.16;48.63
64713;BME280;51140;45.340;5.980;2023-05-25T11:29:51;98391.75;;;21.12;51.27
64713;BME280;51140;45.340;5.980;2023-05-25T11:32:17;98390.03;;;20.98;57.74
64713;BME280;51140;45.340;5.980;2023-05-25T11:34:43;98389.22;;;20.77;49.76
64713;BME280;51140;45.340;5.980;2023-05-25T11:37:20;98387.19;;;20.95;49.09
64713;BME280;51140;45.340;5.980;2023-05-25T11:39:51;98392.38;;;21.17;48.65
64713;BME280;51140;45.340;5.980;2023-05-25T11:42:22;98389.31;;;21.19;53.66
64713;BME280;51140;45.340;5.980;2023-05-25T11:44:47;98384.78;;;21.10;53.28
64713;BME280;51140;45.340;5.980;2023-05-25T11:47:13;98384.00;;;21.31;49.40
64713;BME280;51140;45.340;5.980;2023-05-25T11:49:44;98383.28;;;21.22;49.45
64713;BME280;51140;45.340;5.980;2023-05-25T11:52:13;98382.72;;;21.07;47.59
64713;BME280;51140;45.340;5.980;2023-05-25T11:54:39;98384.66;;;20.61;48.01
64713;BME280;51140;45.340;5.980;2023-05-25T11:57:15;98384.19;;;20.96;53.94
64713;BME280;51140;45.340;5.980;2023-05-25T11:59:46;98393.16;;;21.38;56.41
64713;BME280;51140;45.340;5.980;2023-05-25T12:02:13;98392.06;;;22.01;54.46
64713;BME280;51140;45.340;5.980;2023-05-25T12:04:38;98393.13;;;21.88;51.21
64713;BME280;51140;45.340;5.980;2023-05-25T12:07:07;98398.06;;;21.45;54.79
64713;BME280;51140;45.340;5.980;2023-05-25T12:09:33;98386.13;;;21.87;51.26
64713;BME280;51140;45.340;5.980;2023-05-25T12:12:02;98389.88;;;21.95;51.04
64713;BME280;51140;45.340;5.980;2023-05-25T12:14:27;98392.09;;;22.13;50.98
64713;BME280;51140;45.340;5.980;2023-05-25T12:16:53;98391.66;;;22.23;52.59
64713;BME280;51140;45.340;5.980;2023-05-25T12:19:20;98385.00;;;22.21;52.43
64713;BME280;51140;45.340;5.980;2023-05-25T12:21:46;98393.97;;;21.80;50.11
64713;BME280;51140;45.340;5.980;2023-05-25T12:24:14;98400.97;;;21.02;47.24
64713;BME280;51140;45.340;5.980;2023-05-25T12:26:47;98401.72;;;20.82;49.44
64713;BME280;51140;45.340;5.980;2023-05-25T12:29:13;98401.28;;;20.71;48.93
64713;BME280;51140;45.340;5.980;2023-05-25T12:31:39;98393.28;;;20.83;53.76
64713;BME280;51140;45.340;5.980;2023-05-25T12:39:06;98392.66;;;20.40;50.10
64713;BME280;51140;45.340;5.980;2023-05-25T12:41:48;98386.81;;;20.12;52.14
64713;BME280;51140;45.340;5.980;2023-05-25T12:44:17;98390.94;;;20.27;52.34
64713;BME280;51140;45.340;5.980;2023-05-25T12:46:43;98391.69;;;20.44;58.62
64713;BME280;51140;45.340;5.980;2023-05-25T12:49:31;98393.81;;;20.05;57.59
64713;BME280;51140;45.340;5.980;2023-05-25T12:51:57;98393.63;;;20.35;51.07
64713;BME280;51140;45.340;5.980;2023-05-25T12:54:43;98385.97;;;21.22;56.00
64713;BME280;51140;45.340;5.980;2023-05-25T12:57:16;98389.63;;;21.26;50.48
64713;BME280;51140;45.340;5.980;2023-05-25T12:59:46;98393.44;;;21.45;51.34
64713;BME280;51140;45.340;5.980;2023-05-25T13:02:13;98386.06;;;21.54;52.04
64713;BME280;51140;45.340;5.980;2023-05-25T13:04:40;98379.63;;;21.18;48.85
64713;BME280;51140;45.340;5.980;2023-05-25T13:07:09;98385.94;;;20.92;49.64
64713;BME280;51140;45.340;5.980;2023-05-25T13:09:35;98383.28;;;20.84;50.09
64713;BME280;51140;45.340;5.980;2023-05-25T13:12:01;98376.06;;;21.34;49.45
64713;BME280;51140;45.340;5.980;2023-05-25T13:14:28;98377.63;;;21.77;51.08
64713;BME280;51140;45.340;5.980;2023-05-25T13:16:54;98380.25;;;21.44;49.28
64713;BME280;51140;45.340;5.980;2023-05-25T13:19:22;98376.84;;;21.55;55.96
64713;BME280;51140;45.340;5.980;2023-05-25T13:21:48;98381.78;;;21.74;50.02